createdAt,value
2018-07-08T00:00:24.685Z,101457.83
2018-07-08T00:02:51.896Z,101462.18
2018-07-08T00:05:19.927Z,101453.39
2018-07-08T00:07:47.065Z,101449.75
2018-07-08T00:10:14.364Z,101453.31
2018-07-08T00:12:41.512Z,101454.48
2018-07-08T00:15:08.652Z,101450.39
2018-07-08T00:17:35.852Z,101454.20
2018-07-08T00:20:03.082Z,101451.52
2018-07-08T00:22:31.065Z,101448.91
2018-07-08T00:24:58.350Z,101449.59
2018-07-08T00:27:25.477Z,101454.81
2018-07-08T00:29:52.600Z,101457.63
2018-07-08T00:32:20.125Z,101456.42
2018-07-08T00:34:47.755Z,101459.72
2018-07-08T00:37:14.951Z,101459.36
2018-07-08T00:39:42.274Z,101454.97
2018-07-08T00:42:09.492Z,101456.61
2018-07-08T00:44:36.653Z,101453.59
2018-07-08T00:47:04.049Z,101456.47
2018-07-08T00:49:31.228Z,101451.26
2018-07-08T00:51:58.391Z,101457.98
2018-07-08T00:54:25.609Z,101447.53
2018-07-08T00:56:52.748Z,101452.77
2018-07-08T00:59:20.005Z,101454.00
2018-07-08T01:01:47.582Z,101453.95
2018-07-08T01:04:14.704Z,101453.21
2018-07-08T01:06:42.824Z,101453.26
2018-07-08T01:09:10.065Z,101453.77
2018-07-08T01:11:37.313Z,101457.02
2018-07-08T01:14:04.608Z,101448.05
2018-07-08T01:16:31.848Z,101455.19
2018-07-08T01:18:58.992Z,101454.27
2018-07-08T01:21:26.151Z,101452.50
2018-07-08T01:23:54.005Z,101462.01
2018-07-08T01:26:21.200Z,101462.61
2018-07-08T01:28:48.964Z,101461.55
2018-07-08T01:31:17.223Z,101464.46
2018-07-08T01:33:44.367Z,101468.73
2018-07-08T01:36:11.561Z,101472.53
2018-07-08T01:38:38.818Z,101472.12
2018-07-08T01:41:06.082Z,101467.12
2018-07-08T01:43:33.251Z,101473.80
2018-07-08T01:46:00.818Z,101474.25
2018-07-08T01:48:28.073Z,101471.31
2018-07-08T01:50:55.256Z,101465.88
2018-07-08T01:53:22.934Z,101461.91
2018-07-08T01:55:50.069Z,101473.44
2018-07-08T01:58:17.232Z,101469.67
2018-07-08T02:00:44.530Z,101467.07
2018-07-08T02:03:11.720Z,101468.90
2018-07-08T02:05:39.041Z,101476.70
2018-07-08T02:08:06.311Z,101473.23
2018-07-08T02:10:33.424Z,101472.81
2018-07-08T02:13:00.609Z,101480.28
2018-07-08T02:15:28.280Z,101480.16
2018-07-08T02:17:55.439Z,101481.42
2018-07-08T02:20:22.620Z,101478.77
2018-07-08T02:22:49.820Z,101481.83
2018-07-08T02:25:17.062Z,101490.70
2018-07-08T02:27:44.232Z,101483.45
2018-07-08T02:30:11.893Z,101481.17
2018-07-08T02:32:39.255Z,101479.39
2018-07-08T02:35:06.392Z,101482.23
2018-07-08T02:37:33.692Z,101482.61
2018-07-08T02:40:00.880Z,101482.73
2018-07-08T02:42:28.032Z,101479.00
2018-07-08T02:44:55.546Z,101482.23
2018-07-08T02:47:23.094Z,101483.23
2018-07-08T02:49:50.772Z,101479.07
2018-07-08T02:52:19.681Z,101476.51
2018-07-08T02:54:46.828Z,101479.05
2018-07-08T02:57:14.193Z,101471.09
2018-07-08T02:59:41.430Z,101473.33
2018-07-08T03:02:08.755Z,101477.63
2018-07-08T03:04:35.972Z,101479.66
2018-07-08T03:07:03.177Z,101485.27
2018-07-08T03:09:30.369Z,101485.63
2018-07-08T03:11:57.524Z,101483.64
2018-07-08T03:14:25.189Z,101488.53
2018-07-08T03:16:52.437Z,101481.56
2018-07-08T03:19:19.638Z,101479.25
2018-07-08T03:21:46.806Z,101483.33
2018-07-08T03:24:13.925Z,101483.06
2018-07-08T03:26:41.179Z,101480.00
2018-07-08T03:29:08.452Z,101479.18
2018-07-08T03:31:35.580Z,101476.86
2018-07-08T03:34:02.732Z,101481.25
2018-07-08T03:36:29.912Z,101484.20
2018-07-08T03:38:57.943Z,101479.55
2018-07-08T03:41:25.146Z,101476.48
2018-07-08T03:43:52.308Z,101481.42
2018-07-08T03:46:19.404Z,101482.03
2018-07-08T03:48:46.552Z,101482.16
2018-07-08T03:51:13.771Z,101477.43
2018-07-08T03:53:40.913Z,101485.55
2018-07-08T03:56:08.136Z,101487.20
2018-07-08T03:58:35.306Z,101491.36
2018-07-08T04:01:02.435Z,101490.70
2018-07-08T04:03:29.914Z,101494.51
2018-07-08T04:05:57.357Z,101492.98
2018-07-08T04:08:24.488Z,101498.52
2018-07-08T04:10:51.985Z,101494.30
2018-07-08T04:13:19.164Z,101495.38
2018-07-08T04:15:46.408Z,101499.35
2018-07-08T04:18:13.590Z,101496.78
2018-07-08T04:20:40.730Z,101497.86
2018-07-08T04:23:08.102Z,101496.70
2018-07-08T04:25:35.312Z,101499.34
2018-07-08T04:28:03.065Z,101500.83
2018-07-08T04:30:30.828Z,101500.08
2018-07-08T04:32:57.988Z,101506.70
2018-07-08T04:35:25.292Z,101505.80
2018-07-08T04:37:52.403Z,101505.70
2018-07-08T04:40:19.676Z,101506.22
2018-07-08T04:42:46.931Z,101509.72
2018-07-08T04:45:14.036Z,101519.59
2018-07-08T04:47:41.136Z,101516.11
2018-07-08T04:50:08.408Z,101516.94
2018-07-08T04:52:35.588Z,101517.49
2018-07-08T04:55:02.888Z,101515.44
2018-07-08T04:57:30.073Z,101519.56
2018-07-08T04:59:57.433Z,101519.48
2018-07-08T05:02:24.555Z,101515.71
2018-07-08T05:04:51.778Z,101516.66
2018-07-08T05:07:18.956Z,101514.80
2018-07-08T05:09:46.084Z,101514.34
2018-07-08T05:12:13.241Z,101525.18
2018-07-08T05:14:40.400Z,101522.31
2018-07-08T05:17:07.631Z,101524.97
2018-07-08T05:19:34.843Z,101517.41
2018-07-08T05:22:01.973Z,101521.95
2018-07-08T05:24:29.080Z,101528.55
2018-07-08T05:26:56.284Z,101523.19
2018-07-08T05:29:24.306Z,101521.89
2018-07-08T05:31:51.484Z,101529.14
2018-07-08T05:34:18.677Z,101525.53
2018-07-08T05:36:45.852Z,101525.20
2018-07-08T05:39:13.054Z,101525.42
2018-07-08T05:41:40.200Z,101528.75
2018-07-08T05:44:07.320Z,101533.43
2018-07-08T05:46:34.473Z,101532.84
2018-07-08T05:49:01.759Z,101527.77
2018-07-08T05:51:28.936Z,101529.47
2018-07-08T05:53:56.186Z,101529.94
2018-07-08T05:56:24.488Z,101534.56
2018-07-08T05:58:51.860Z,101529.84
2018-07-08T06:01:19.071Z,101532.03
2018-07-08T06:03:46.204Z,101535.23
2018-07-08T06:06:13.328Z,101543.08
2018-07-08T06:08:40.448Z,101545.19
2018-07-08T06:11:08.055Z,101547.30
2018-07-08T06:13:35.277Z,101550.75
2018-07-08T06:16:02.437Z,101545.28
2018-07-08T06:18:29.606Z,101548.26
2018-07-08T06:20:56.735Z,101554.52
2018-07-08T06:23:23.843Z,101547.06
2018-07-08T06:25:51.146Z,101547.80
2018-07-08T06:28:18.264Z,101553.98
2018-07-08T06:30:45.844Z,101549.83
2018-07-08T06:33:12.991Z,101547.73
2018-07-08T06:35:40.119Z,101545.19
2018-07-08T06:38:07.656Z,101542.70
2018-07-08T06:40:34.856Z,101546.29
2018-07-08T06:43:02.029Z,101547.38
2018-07-08T06:45:29.312Z,101549.73
2018-07-08T06:47:56.532Z,101551.71
2018-07-08T06:50:23.782Z,101555.20
2018-07-08T06:52:50.928Z,101549.52
2018-07-08T06:55:18.130Z,101560.30
2018-07-08T06:57:45.290Z,101565.42
2018-07-08T07:00:13.055Z,101559.90
2018-07-08T07:02:40.248Z,101563.88
2018-07-08T07:05:07.470Z,101561.17
2018-07-08T07:07:34.639Z,101556.17
2018-07-08T07:10:01.838Z,101558.89
2018-07-08T07:12:29.070Z,101563.22
2018-07-08T07:14:56.197Z,101558.13
2018-07-08T07:17:23.420Z,101561.08
2018-07-08T07:19:50.564Z,101571.73
2018-07-08T07:22:17.684Z,101573.48
2018-07-08T07:24:44.865Z,101564.80
2018-07-08T07:27:12.016Z,101570.14
2018-07-08T07:29:39.191Z,101568.53
2018-07-08T07:32:08.725Z,101565.48
2018-07-08T07:34:35.910Z,101564.80
2018-07-08T07:37:03.222Z,101557.11
2018-07-08T07:39:30.536Z,101558.41
2018-07-08T07:41:57.683Z,101550.20
2018-07-08T07:44:24.835Z,101555.66
2018-07-08T07:46:52.011Z,101557.28
2018-07-08T07:49:19.160Z,101555.35
2018-07-08T07:51:46.371Z,101552.73
2018-07-08T07:54:13.536Z,101554.91
2018-07-08T07:56:40.704Z,101557.78
2018-07-08T07:59:07.883Z,101558.02
2018-07-08T08:01:35.024Z,101555.23
2018-07-08T08:04:02.148Z,101549.48
2018-07-08T08:06:29.317Z,101555.47
2018-07-08T08:08:57.409Z,101547.23
2018-07-08T08:11:24.546Z,101552.30
2018-07-08T08:14:00.889Z,101562.95
2018-07-08T08:16:28.132Z,101565.89
2018-07-08T08:18:55.582Z,101565.98
2018-07-08T08:21:23.192Z,101579.58
2018-07-08T08:23:50.373Z,101574.16
2018-07-08T08:26:17.916Z,101572.13
2018-07-08T08:28:45.076Z,101573.12
2018-07-08T08:31:12.199Z,101572.67
2018-07-08T08:33:39.963Z,101575.59
2018-07-08T08:36:07.160Z,101581.22
2018-07-08T08:38:34.285Z,101587.83
2018-07-08T08:41:01.450Z,101588.41
2018-07-08T08:43:28.606Z,101582.35
2018-07-08T08:45:55.757Z,101579.33
2018-07-08T08:48:22.897Z,101569.55
2018-07-08T08:50:50.152Z,101577.83
2018-07-08T08:53:17.332Z,101572.77
2018-07-08T08:55:44.464Z,101579.16
2018-07-08T08:58:11.633Z,101577.59
2018-07-08T09:00:38.804Z,101578.58
2018-07-08T09:03:05.964Z,101570.03
2018-07-08T09:05:33.138Z,101568.66
2018-07-08T09:08:00.296Z,101573.42
2018-07-08T09:10:27.444Z,101563.65
2018-07-08T09:12:54.612Z,101562.95
2018-07-08T09:15:21.754Z,101568.75
2018-07-08T09:17:48.864Z,101558.70
2018-07-08T09:20:16.041Z,101561.75
2018-07-08T09:22:43.174Z,101564.97
2018-07-08T09:25:10.273Z,101558.87
2018-07-08T09:27:37.420Z,101566.73
2018-07-08T09:30:04.653Z,101565.52
2018-07-08T09:32:31.749Z,101564.98
2018-07-08T09:35:00.648Z,101567.36
2018-07-08T09:37:27.801Z,101567.86
2018-07-08T09:39:54.947Z,101564.23
2018-07-08T09:42:22.117Z,101556.22
2018-07-08T09:44:49.223Z,101559.66
2018-07-08T09:47:16.339Z,101566.80
2018-07-08T09:49:43.509Z,101566.36
2018-07-08T09:52:10.734Z,101562.94
2018-07-08T09:54:37.909Z,101568.92
2018-07-08T09:57:05.177Z,101567.74
2018-07-08T09:59:32.328Z,101570.74
2018-07-08T10:01:59.471Z,101568.44
2018-07-08T10:04:26.759Z,101565.74
2018-07-08T10:06:54.356Z,101572.83
2018-07-08T10:09:22.674Z,101574.52
2018-07-08T10:11:49.884Z,101579.66
2018-07-08T10:14:19.461Z,101569.66
2018-07-08T10:16:46.641Z,101568.49
2018-07-08T10:19:15.036Z,101563.37
2018-07-08T10:21:42.290Z,101563.83
2018-07-08T10:24:09.745Z,101555.45
2018-07-08T10:26:36.992Z,101559.98
2018-07-08T10:29:04.450Z,101565.97
2018-07-08T10:31:45.032Z,101571.06
2018-07-08T10:34:12.196Z,101564.45
2018-07-08T10:36:39.483Z,101573.30
2018-07-08T10:39:07.927Z,101570.21
2018-07-08T10:41:35.078Z,101568.30
2018-07-08T10:44:02.316Z,101568.41
2018-07-08T10:46:29.604Z,101565.51
2018-07-08T10:48:56.765Z,101568.11
2018-07-08T10:51:23.937Z,101567.55
2018-07-08T10:53:51.170Z,101569.95
2018-07-08T10:56:18.448Z,101567.52
2018-07-08T10:58:45.601Z,101564.36
2018-07-08T11:01:12.790Z,101556.62
2018-07-08T11:03:39.933Z,101566.58
2018-07-08T11:06:07.066Z,101560.97
2018-07-08T11:08:34.307Z,101563.67
2018-07-08T11:11:01.537Z,101568.31
2018-07-08T11:13:28.671Z,101562.20
2018-07-08T11:15:55.839Z,101570.16
2018-07-08T11:18:23.009Z,101564.09
2018-07-08T11:20:50.180Z,101560.13
2018-07-08T11:23:17.362Z,101566.38
2018-07-08T11:25:44.533Z,101561.48
2018-07-08T11:28:11.627Z,101555.30
2018-07-08T11:30:39.128Z,101553.98
2018-07-08T11:33:06.755Z,101544.28
2018-07-08T11:35:33.936Z,101553.17
2018-07-08T11:38:01.157Z,101549.98
2018-07-08T11:40:28.354Z,101548.25
2018-07-08T11:42:55.520Z,101550.73
2018-07-08T11:45:22.904Z,101555.45
2018-07-08T11:47:50.009Z,101550.99
2018-07-08T11:50:17.161Z,101553.87
2018-07-08T11:52:44.359Z,101549.50
2018-07-08T11:55:11.524Z,101550.97
2018-07-08T11:57:38.707Z,101546.30
2018-07-08T12:00:06.041Z,101551.74
2018-07-08T12:02:33.292Z,101545.55
2018-07-08T12:05:00.442Z,101548.73
2018-07-08T12:07:27.683Z,101550.83
2018-07-08T12:09:54.855Z,101546.95
2018-07-08T12:12:22.057Z,101548.56
2018-07-08T12:14:49.212Z,101549.25
2018-07-08T12:17:16.388Z,101543.48
2018-07-08T12:19:43.508Z,101545.63
2018-07-08T12:22:10.644Z,101549.20
2018-07-08T12:24:37.759Z,101545.20
2018-07-08T12:27:05.020Z,101550.02
2018-07-08T12:29:32.182Z,101545.99
2018-07-08T12:31:59.309Z,101543.98
2018-07-08T12:34:26.424Z,101547.11
2018-07-08T12:36:53.679Z,101540.87
2018-07-08T12:39:20.826Z,101544.21
2018-07-08T12:41:48.004Z,101541.36
2018-07-08T12:44:15.239Z,101539.91
2018-07-08T12:46:42.319Z,101542.48
2018-07-08T12:49:09.472Z,101536.69
2018-07-08T12:51:36.692Z,101542.44
2018-07-08T12:54:03.914Z,101540.11
2018-07-08T12:56:31.093Z,101537.80
2018-07-08T12:58:58.352Z,101539.52
2018-07-08T13:01:25.504Z,101545.81
2018-07-08T13:03:52.649Z,101545.42
2018-07-08T13:06:21.827Z,101547.52
2018-07-08T13:08:51.383Z,101542.11
2018-07-08T13:11:19.598Z,101540.86
2018-07-08T13:13:46.902Z,101545.08
2018-07-08T13:16:14.150Z,101541.95
2018-07-08T13:18:41.368Z,101535.34
2018-07-08T13:21:08.573Z,101537.80
2018-07-08T13:23:36.281Z,101536.45
2018-07-08T13:26:03.515Z,101537.22
2018-07-08T13:28:30.737Z,101537.44
2018-07-08T13:30:58.784Z,101538.06
2018-07-08T13:33:26.280Z,101528.23
2018-07-08T13:35:53.589Z,101528.23
2018-07-08T13:38:21.306Z,101525.24
2018-07-08T13:40:48.464Z,101529.89
2018-07-08T13:43:16.330Z,101522.09
2018-07-08T13:45:44.280Z,101515.30
2018-07-08T13:48:12.502Z,101517.28
2018-07-08T13:50:41.276Z,101517.52
2018-07-08T13:53:09.325Z,101519.72
2018-07-08T13:55:36.996Z,101514.87
2018-07-08T13:58:04.466Z,101510.66
2018-07-08T14:00:31.734Z,101500.98
2018-07-08T14:02:58.923Z,101508.40
2018-07-08T14:05:26.139Z,101510.48
2018-07-08T14:07:53.298Z,101512.38
2018-07-08T14:10:20.435Z,101508.70
2018-07-08T14:12:47.610Z,101502.84
2018-07-08T14:15:14.733Z,101502.67
2018-07-08T14:17:41.877Z,101496.58
2018-07-08T14:20:09.113Z,101502.04
2018-07-08T14:22:36.319Z,101502.11
2018-07-08T14:25:03.609Z,101496.44
2018-07-08T14:27:30.821Z,101498.59
2018-07-08T14:29:58.050Z,101490.28
2018-07-08T14:32:25.664Z,101487.67
2018-07-08T14:34:52.898Z,101496.52
2018-07-08T14:37:20.024Z,101499.41
2018-07-08T14:39:47.191Z,101488.30
2018-07-08T14:42:14.382Z,101485.83
2018-07-08T14:44:41.572Z,101478.56
2018-07-08T14:47:08.677Z,101474.44
2018-07-08T14:49:36.012Z,101465.67
2018-07-08T14:52:03.143Z,101472.97
2018-07-08T14:54:30.297Z,101468.69
2018-07-08T14:56:57.973Z,101468.86
2018-07-08T14:59:25.244Z,101464.91
2018-07-08T15:01:52.415Z,101460.08
2018-07-08T15:04:19.654Z,101462.44
2018-07-08T15:06:46.867Z,101460.84
2018-07-08T15:09:14.490Z,101462.53
2018-07-08T15:11:42.730Z,101458.89
2018-07-08T15:14:09.892Z,101465.51
2018-07-08T15:16:37.302Z,101458.68
2018-07-08T15:19:05.579Z,101459.81
2018-07-08T15:21:33.209Z,101455.52
2018-07-08T15:24:00.820Z,101456.03
2018-07-08T15:26:28.460Z,101459.05
2018-07-08T15:28:56.028Z,101451.09
2018-07-08T15:31:24.040Z,101456.55
2018-07-08T15:33:55.515Z,101444.17
2018-07-08T15:36:24.555Z,101441.20
2018-07-08T15:38:51.766Z,101441.84
2018-07-08T15:41:18.941Z,101439.02
2018-07-08T15:43:46.910Z,101437.45
2018-07-08T15:46:14.184Z,101433.23
2018-07-08T15:48:41.399Z,101430.34
2018-07-08T15:51:08.660Z,101422.08
2018-07-08T15:53:36.244Z,101424.45
2018-07-08T15:56:03.574Z,101423.73
2018-07-08T15:58:31.043Z,101421.84
2018-07-08T16:00:59.702Z,101422.92
2018-07-08T16:03:28.393Z,101418.91
2018-07-08T16:05:56.552Z,101417.86
2018-07-08T16:08:24.329Z,101417.23
2018-07-08T16:10:51.900Z,101412.91
2018-07-08T16:13:19.500Z,101416.55
2018-07-08T16:15:46.976Z,101417.00
2018-07-08T16:18:14.187Z,101414.13
2018-07-08T16:20:41.363Z,101418.75
2018-07-08T16:23:08.966Z,101418.13
2018-07-08T16:25:36.162Z,101420.56
2018-07-08T16:28:03.496Z,101413.20
2018-07-08T16:30:31.573Z,101408.34
2018-07-08T16:33:03.416Z,101411.69
2018-07-08T16:35:30.544Z,101410.61
2018-07-08T16:37:57.637Z,101400.30
2018-07-08T16:40:25.462Z,101402.34
2018-07-08T16:42:53.157Z,101404.86
2018-07-08T16:45:21.097Z,101405.98
2018-07-08T16:47:48.880Z,101408.73
2018-07-08T16:50:17.515Z,101406.82
2018-07-08T16:52:46.090Z,101407.05
2018-07-08T16:55:16.084Z,101399.98
2018-07-08T16:57:45.652Z,101393.42
2018-07-08T17:00:16.069Z,101397.50
2018-07-08T17:02:45.691Z,101403.53
2018-07-08T17:05:15.195Z,101400.84
2018-07-08T17:07:43.832Z,101402.83
2018-07-08T17:10:11.044Z,101401.60
2018-07-08T17:12:39.415Z,101398.70
2018-07-08T17:15:06.994Z,101397.35
2018-07-08T17:17:34.152Z,101400.17
2018-07-08T17:20:01.312Z,101398.90
2018-07-08T17:22:28.654Z,101397.77
2018-07-08T17:24:56.416Z,101397.98
2018-07-08T17:27:24.265Z,101390.61
2018-07-08T17:29:51.704Z,101391.02
2018-07-08T17:32:19.239Z,101392.94
2018-07-08T17:34:46.987Z,101396.07
2018-07-08T17:37:16.154Z,101393.71
2018-07-08T17:39:44.419Z,101391.25
2018-07-08T17:42:14.617Z,101394.86
2018-07-08T17:44:42.988Z,101392.55
2018-07-08T17:47:11.283Z,101389.72
2018-07-08T17:49:39.259Z,101390.23
2018-07-08T17:52:06.545Z,101394.27
2018-07-08T17:54:33.749Z,101397.47
2018-07-08T17:57:01.436Z,101396.27
2018-07-08T17:59:28.911Z,101396.88
2018-07-08T18:01:56.083Z,101400.53
2018-07-08T18:04:23.468Z,101395.63
2018-07-08T18:06:52.035Z,101399.31
2018-07-08T18:09:19.800Z,101397.73
2018-07-08T18:11:47.236Z,101396.49
2018-07-08T18:14:15.882Z,101394.91
2018-07-08T18:16:43.925Z,101391.34
2018-07-08T18:19:11.079Z,101395.02
2018-07-08T18:21:38.252Z,101400.30
2018-07-08T18:24:06.853Z,101391.22
2018-07-08T18:26:34.120Z,101393.67
2018-07-08T18:29:01.377Z,101394.64
2018-07-08T18:31:28.485Z,101389.44
2018-07-08T18:33:55.647Z,101399.98
2018-07-08T18:36:23.120Z,101402.97
2018-07-08T18:38:51.331Z,101410.73
2018-07-08T18:41:18.781Z,101404.25
2018-07-08T18:43:46.656Z,101403.23
2018-07-08T18:46:14.265Z,101399.19
2018-07-08T18:48:43.469Z,101403.67
2018-07-08T18:51:10.716Z,101401.05
2018-07-08T18:53:37.814Z,101403.58
2018-07-08T18:56:05.008Z,101402.07
2018-07-08T18:58:32.325Z,101410.36
2018-07-08T19:00:59.495Z,101404.53
2018-07-08T19:03:26.595Z,101412.48
2018-07-08T19:05:53.756Z,101409.31
2018-07-08T19:08:21.352Z,101419.12
2018-07-08T19:10:48.853Z,101415.50
2018-07-08T19:13:16.956Z,101412.11
2018-07-08T19:15:44.615Z,101419.27
2018-07-08T19:18:11.994Z,101420.65
2018-07-08T19:20:39.323Z,101420.58
2018-07-08T19:23:06.517Z,101425.44
2018-07-08T19:25:33.636Z,101420.73
2018-07-08T19:28:00.936Z,101429.94
2018-07-08T19:30:29.395Z,101433.83
2018-07-08T19:32:56.612Z,101434.66
2018-07-08T19:35:23.939Z,101439.45
2018-07-08T19:37:51.474Z,101439.44
2018-07-08T19:40:20.030Z,101438.70
2018-07-08T19:42:47.969Z,101443.12
2018-07-08T19:45:16.767Z,101443.56
2018-07-08T19:47:45.046Z,101443.46
2018-07-08T19:50:13.027Z,101441.28
2018-07-08T19:52:40.243Z,101444.36
2018-07-08T19:55:07.355Z,101447.26
2018-07-08T19:57:34.489Z,101445.33
2018-07-08T20:00:01.851Z,101444.76
2018-07-08T20:02:29.186Z,101444.00
2018-07-08T20:04:56.908Z,101448.60
2018-07-08T20:07:24.159Z,101451.00
2018-07-08T20:09:51.460Z,101449.73
2018-07-08T20:12:19.249Z,101458.73
2018-07-08T20:14:48.710Z,101460.25
2018-07-08T20:17:17.401Z,101465.38
2018-07-08T20:19:46.356Z,101458.96
2018-07-08T20:22:14.891Z,101466.48
2018-07-08T20:24:43.783Z,101469.23
2018-07-08T20:27:11.015Z,101475.64
2018-07-08T20:29:44.355Z,101468.85
2018-07-08T20:32:11.534Z,101463.73
2018-07-08T20:34:38.699Z,101464.06
2018-07-08T20:37:05.901Z,101464.97
2018-07-08T20:39:33.032Z,101465.16
2018-07-08T20:42:00.373Z,101467.47
2018-07-08T20:44:27.658Z,101470.67
2018-07-08T20:47:00.625Z,101469.64
2018-07-08T20:49:27.777Z,101470.45
2018-07-08T20:51:56.494Z,101473.47
2018-07-08T20:54:23.755Z,101471.35
2018-07-08T20:56:51.060Z,101475.45
2018-07-08T20:59:18.369Z,101473.22
2018-07-08T21:01:45.725Z,101474.95
2018-07-08T21:04:13.043Z,101470.95
2018-07-08T21:06:40.199Z,101473.30
2018-07-08T21:09:07.357Z,101469.75
2018-07-08T21:11:34.455Z,101474.08
2018-07-08T21:14:01.584Z,101477.03
2018-07-08T21:16:28.757Z,101468.53
2018-07-08T21:18:55.888Z,101470.66
2018-07-08T21:21:23.004Z,101478.45
2018-07-08T21:23:50.154Z,101472.31
2018-07-08T21:26:17.275Z,101468.47
2018-07-08T21:28:44.439Z,101475.05
2018-07-08T21:31:11.623Z,101469.80
2018-07-08T21:33:39.008Z,101471.38
2018-07-08T21:36:07.068Z,101470.34
2018-07-08T21:38:34.596Z,101471.47
2018-07-08T21:41:02.065Z,101475.47
2018-07-08T21:43:29.283Z,101474.93
2018-07-08T21:45:56.449Z,101473.49
2018-07-08T21:48:23.573Z,101473.02
2018-07-08T21:50:50.676Z,101471.55
2018-07-08T21:53:18.060Z,101472.02
2018-07-08T21:55:45.165Z,101467.16
2018-07-08T21:58:12.348Z,101468.74
2018-07-08T22:00:53.465Z,101468.67
2018-07-08T22:03:20.628Z,101464.09
2018-07-08T22:05:47.984Z,101468.67
2018-07-08T22:08:15.198Z,101469.07
2018-07-08T22:10:42.348Z,101471.34
2018-07-08T22:13:09.452Z,101469.53
2018-07-08T22:15:36.687Z,101468.34
2018-07-08T22:18:03.852Z,101472.50
2018-07-08T22:20:30.953Z,101468.20
2018-07-08T22:22:58.119Z,101464.48
2018-07-08T22:25:25.828Z,101465.75
2018-07-08T22:27:52.952Z,101474.09
2018-07-08T22:30:20.879Z,101471.02
2018-07-08T22:32:48.003Z,101471.63
2018-07-08T22:35:15.748Z,101471.88
2018-07-08T22:37:43.447Z,101475.70
2018-07-08T22:40:10.616Z,101475.70
2018-07-08T22:42:37.724Z,101478.45
2018-07-08T22:45:04.920Z,101469.65
2018-07-08T22:47:32.057Z,101477.59
2018-07-08T22:49:59.192Z,101474.13
2018-07-08T22:52:26.408Z,101478.20
2018-07-08T22:54:53.896Z,101477.83
2018-07-08T22:57:21.086Z,101482.85
2018-07-08T22:59:59.823Z,101479.09
2018-07-08T23:02:41.371Z,101482.49
2018-07-08T23:05:08.573Z,101478.95
2018-07-08T23:07:35.704Z,101473.91
2018-07-08T23:10:02.896Z,101470.01
2018-07-08T23:12:30.100Z,101471.09
2018-07-08T23:14:57.308Z,101476.04
2018-07-08T23:17:24.436Z,101472.11
2018-07-08T23:19:51.586Z,101472.28
2018-07-08T23:22:19.699Z,101474.09
2018-07-08T23:24:46.844Z,101469.94
2018-07-08T23:27:14.004Z,101473.07
2018-07-08T23:29:41.508Z,101476.04
2018-07-08T23:32:08.654Z,101477.08
2018-07-08T23:34:35.820Z,101473.15
2018-07-08T23:37:02.944Z,101478.50
2018-07-08T23:39:30.148Z,101477.77
2018-07-08T23:41:57.289Z,101482.90
2018-07-08T23:44:24.415Z,101472.28
2018-07-08T23:46:51.532Z,101468.35
2018-07-08T23:49:18.768Z,101469.91
2018-07-08T23:51:45.912Z,101472.58
2018-07-08T23:54:13.062Z,101472.36
2018-07-08T23:56:40.218Z,101471.42
2018-07-08T23:59:07.347Z,101475.17
